createdAt,value
2023-05-01T00:00:03.479Z,5.87
2023-05-01T00:01:01.064Z,5.03
2023-05-01T00:02:01.066Z,5.27
2023-05-01T00:03:01.129Z,5.17
2023-05-01T00:04:01.705Z,4.80
2023-05-01T00:05:01.130Z,4.87
2023-05-01T00:06:03.354Z,4.83
2023-05-01T00:07:01.059Z,5.43
2023-05-01T00:08:01.366Z,5.47
2023-05-01T00:09:01.860Z,4.83
2023-05-01T00:10:01.519Z,5.53
2023-05-01T00:11:02.579Z,6.37
2023-05-01T00:12:01.933Z,5.73
2023-05-01T00:13:01.511Z,5.93
2023-05-01T00:14:01.092Z,5.23
2023-05-01T00:15:01.435Z,6.57
2023-05-01T00:16:01.102Z,8.53
2023-05-01T00:17:01.570Z,8.83
2023-05-01T00:18:01.123Z,8.10
2023-05-01T00:19:01.030Z,8.37
2023-05-01T00:20:00.997Z,8.90
2023-05-01T00:21:01.448Z,9.20
2023-05-01T00:22:01.320Z,9.00
2023-05-01T00:23:01.017Z,9.17
2023-05-01T00:24:01.417Z,9.07
2023-05-01T00:25:01.328Z,9.33
2023-05-01T00:26:01.390Z,9.50
2023-05-01T00:27:01.241Z,9.17
2023-05-01T00:28:01.338Z,10.60
2023-05-01T00:29:01.403Z,12.93
2023-05-01T00:30:01.218Z,10.70
2023-05-01T00:31:01.338Z,12.37
2023-05-01T00:32:01.137Z,13.50
2023-05-01T00:33:01.149Z,10.03
2023-05-01T00:34:01.528Z,12.57
2023-05-01T00:35:01.345Z,11.13
2023-05-01T00:36:01.026Z,10.60
2023-05-01T00:37:01.068Z,12.10
2023-05-01T00:38:01.450Z,10.63
2023-05-01T00:39:01.397Z,10.80
2023-05-01T00:40:01.320Z,11.93
2023-05-01T00:41:01.433Z,11.23
2023-05-01T00:42:01.033Z,13.63
2023-05-01T00:43:01.362Z,8.67
2023-05-01T00:44:01.731Z,10.43
2023-05-01T00:45:01.098Z,9.40
2023-05-01T00:46:01.194Z,7.90
2023-05-01T00:47:01.127Z,8.60
2023-05-01T00:48:01.071Z,6.87
2023-05-01T00:49:01.397Z,8.77
2023-05-01T00:50:02.190Z,7.10
2023-05-01T00:51:04.765Z,7.67
2023-05-01T00:52:01.685Z,7.83
2023-05-01T00:53:01.806Z,6.33
2023-05-01T00:54:02.391Z,7.73
2023-05-01T00:55:01.099Z,7.20
2023-05-01T00:56:01.636Z,7.00
2023-05-01T00:57:02.218Z,6.83
2023-05-01T00:58:01.067Z,7.20
2023-05-01T00:59:01.065Z,7.67
2023-05-01T01:00:01.087Z,7.83
2023-05-01T01:01:01.957Z,6.50
2023-05-01T01:02:01.040Z,6.80
2023-05-01T01:03:01.541Z,7.10
2023-05-01T01:04:01.105Z,4.30
2023-05-01T01:05:01.053Z,6.50
2023-05-01T01:06:08.379Z,5.43
2023-05-01T01:07:08.829Z,5.57
2023-05-01T01:08:10.181Z,5.87
2023-05-01T01:09:17.122Z,5.83
2023-05-01T01:10:09.549Z,6.83
2023-05-01T01:11:07.215Z,5.13
2023-05-01T01:12:09.466Z,5.53
2023-05-01T01:13:07.626Z,7.33
2023-05-01T01:14:10.789Z,5.40
2023-05-01T01:15:13.033Z,4.77
2023-05-01T01:16:11.691Z,5.67
2023-05-01T01:17:10.904Z,4.50
2023-05-01T01:18:11.628Z,4.47
2023-05-01T01:19:14.126Z,3.83
2023-05-01T01:20:17.893Z,4.73
2023-05-01T01:21:07.759Z,3.17
2023-05-01T01:22:09.394Z,5.10
2023-05-01T01:23:13.945Z,4.57
2023-05-01T01:24:20.488Z,4.37
2023-05-01T01:25:20.466Z,3.47
2023-05-01T01:26:12.241Z,4.70
2023-05-01T01:27:18.323Z,4.40
2023-05-01T01:28:16.269Z,5.27
2023-05-01T01:29:20.659Z,4.10
2023-05-01T01:30:20.493Z,5.50
2023-05-01T01:31:10.741Z,4.37
2023-05-01T01:32:17.502Z,3.57
2023-05-01T01:33:20.466Z,4.37
2023-05-01T01:34:03.605Z,4.63
2023-05-01T01:35:05.525Z,5.17
2023-05-01T01:36:07.303Z,3.90
2023-05-01T01:37:13.999Z,3.07
2023-05-01T01:38:08.831Z,4.07
2023-05-01T01:39:08.351Z,3.73
2023-05-01T01:40:06.454Z,4.07
2023-05-01T01:41:09.254Z,3.37
2023-05-01T01:42:06.399Z,3.57
2023-05-01T01:43:05.443Z,3.07
2023-05-01T01:44:08.365Z,5.43
2023-05-01T01:45:06.268Z,3.07
2023-05-01T01:46:05.783Z,3.03
2023-05-01T01:47:04.331Z,4.80
2023-05-01T01:48:02.529Z,3.90
2023-05-01T01:49:05.636Z,3.67
2023-05-01T01:50:05.835Z,4.17
2023-05-01T01:51:05.094Z,3.63
2023-05-01T01:52:02.826Z,4.17
2023-05-01T01:53:03.670Z,5.13
2023-05-01T01:54:03.245Z,3.17
2023-05-01T01:55:06.467Z,4.73
2023-05-01T01:56:03.929Z,3.43
2023-05-01T01:57:02.988Z,4.03
2023-05-01T01:58:03.528Z,3.57
2023-05-01T01:59:04.190Z,4.27
2023-05-01T02:00:01.067Z,4.13
2023-05-01T02:01:01.153Z,3.57
2023-05-01T02:02:03.015Z,4.00
2023-05-01T02:03:02.597Z,3.43
2023-05-01T02:04:03.182Z,4.33
2023-05-01T02:05:02.636Z,3.00
2023-05-01T02:06:03.720Z,4.07
2023-05-01T02:07:03.373Z,2.90
2023-05-01T02:08:03.311Z,3.00
2023-05-01T02:09:02.802Z,3.57
2023-05-01T02:10:03.430Z,2.90
2023-05-01T02:11:02.788Z,3.17
2023-05-01T02:12:03.093Z,4.30
2023-05-01T02:13:03.394Z,1.87
2023-05-01T02:14:01.989Z,3.80
2023-05-01T02:15:01.863Z,3.20
2023-05-01T02:16:02.631Z,2.30
2023-05-01T02:17:03.363Z,3.93
2023-05-01T02:18:02.701Z,3.83
2023-05-01T02:19:03.192Z,4.03
2023-05-01T02:20:02.628Z,3.30
2023-05-01T02:21:03.752Z,3.90
2023-05-01T02:22:04.604Z,4.97
2023-05-01T02:23:02.484Z,4.60
2023-05-01T02:24:01.348Z,4.33
2023-05-01T02:25:02.475Z,3.10
2023-05-01T02:26:03.437Z,3.37
2023-05-01T02:27:06.285Z,4.50
2023-05-01T02:28:07.799Z,3.93
2023-05-01T02:29:01.731Z,4.73
2023-05-01T02:30:01.568Z,3.50
2023-05-01T02:31:01.053Z,2.53
2023-05-01T02:32:01.204Z,2.87
2023-05-01T02:33:01.242Z,1.40
2023-05-01T02:34:01.455Z,1.90
2023-05-01T02:35:01.142Z,1.90
2023-05-01T02:36:01.049Z,1.90
2023-05-01T02:37:01.276Z,0.33
2023-05-01T02:38:01.085Z,1.40
2023-05-01T02:39:01.659Z,1.00
2023-05-01T02:40:03.015Z,0.17
2023-05-01T02:41:02.194Z,0.13
2023-05-01T02:42:03.088Z,0.50
2023-05-01T02:43:05.975Z,0.60
2023-05-01T02:44:03.273Z,0.67
2023-05-01T02:45:04.515Z,0.93
2023-05-01T02:46:03.174Z,0.83
2023-05-01T02:47:02.548Z,0.00
2023-05-01T02:48:04.509Z,0.00
2023-05-01T02:49:02.628Z,0.33
2023-05-01T02:50:02.224Z,0.27
2023-05-01T02:51:02.699Z,0.00
2023-05-01T02:52:02.297Z,0.00
2023-05-01T02:53:01.447Z,0.00
2023-05-01T02:54:01.734Z,0.00
2023-05-01T02:55:01.903Z,0.00
2023-05-01T02:56:03.366Z,0.00
2023-05-01T02:57:03.452Z,0.00
2023-05-01T02:58:01.383Z,0.00
2023-05-01T02:59:01.411Z,0.00
2023-05-01T03:00:01.398Z,0.00
2023-05-01T03:01:01.460Z,0.00
2023-05-01T03:02:01.799Z,0.00
2023-05-01T03:03:01.410Z,0.00
2023-05-01T03:04:01.164Z,0.00
2023-05-01T03:05:01.106Z,0.00
2023-05-01T03:06:01.424Z,0.00
2023-05-01T03:07:01.109Z,0.00
2023-05-01T03:08:01.499Z,0.00
2023-05-01T03:09:01.047Z,0.20
2023-05-01T03:10:01.478Z,0.00
2023-05-01T03:11:04.624Z,0.00
2023-05-01T03:12:01.155Z,0.00
2023-05-01T03:13:01.275Z,0.20
2023-05-01T03:14:01.386Z,0.00
2023-05-01T03:15:01.369Z,0.00
2023-05-01T03:16:01.406Z,0.00
2023-05-01T03:17:01.413Z,0.00
2023-05-01T03:18:01.539Z,0.00
2023-05-01T03:19:01.383Z,0.00
2023-05-01T03:20:01.076Z,0.00
2023-05-01T03:21:01.061Z,0.00
2023-05-01T03:22:01.082Z,0.00
2023-05-01T03:23:01.411Z,0.00
2023-05-01T03:24:01.308Z,0.00
2023-05-01T03:25:01.585Z,0.00
2023-05-01T03:26:01.364Z,0.00
2023-05-01T03:27:01.317Z,0.00
2023-05-01T03:28:01.445Z,0.00
2023-05-01T03:29:01.092Z,0.00
2023-05-01T03:30:01.381Z,0.00
2023-05-01T03:31:01.370Z,0.00
2023-05-01T03:32:01.063Z,0.00
2023-05-01T03:33:01.468Z,0.00
2023-05-01T03:34:01.340Z,0.00
2023-05-01T03:35:01.266Z,0.00
2023-05-01T03:36:02.087Z,0.00
2023-05-01T03:37:01.062Z,0.00
2023-05-01T03:38:01.389Z,0.00
2023-05-01T03:39:01.067Z,0.00
2023-05-01T03:40:01.149Z,0.00
2023-05-01T03:41:01.069Z,0.00
2023-05-01T03:42:01.094Z,0.00
2023-05-01T03:43:01.109Z,0.00
2023-05-01T03:44:01.095Z,0.00
2023-05-01T03:45:01.001Z,0.00
2023-05-01T03:46:01.300Z,0.00
2023-05-01T03:47:01.032Z,0.00
2023-05-01T03:48:01.408Z,0.00
2023-05-01T03:49:01.319Z,0.00
2023-05-01T03:50:01.106Z,0.00
2023-05-01T03:51:01.059Z,0.00
2023-05-01T03:52:01.432Z,0.00
2023-05-01T03:53:01.079Z,0.00
2023-05-01T03:54:01.308Z,0.00
2023-05-01T03:55:01.087Z,0.00
2023-05-01T03:56:01.352Z,0.03
2023-05-01T03:57:01.245Z,0.00
2023-05-01T03:58:01.088Z,0.00
2023-05-01T03:59:01.506Z,0.00
2023-05-01T04:00:01.370Z,0.00
2023-05-01T04:01:01.130Z,0.00
2023-05-01T04:02:01.123Z,0.00
2023-05-01T04:03:01.287Z,0.47
2023-05-01T04:04:01.609Z,0.00
2023-05-01T04:05:01.395Z,0.00
2023-05-01T04:06:01.726Z,0.00
2023-05-01T04:07:01.082Z,0.00
2023-05-01T04:08:01.204Z,0.00
2023-05-01T04:09:01.086Z,0.00
2023-05-01T04:10:01.413Z,0.00
2023-05-01T04:11:01.069Z,0.00
2023-05-01T04:12:01.052Z,0.00
2023-05-01T04:13:01.025Z,0.00
2023-05-01T04:14:01.355Z,0.00
2023-05-01T04:15:01.337Z,0.00
2023-05-01T04:16:01.409Z,0.00
2023-05-01T04:17:01.613Z,0.00
2023-05-01T04:18:01.164Z,0.00
2023-05-01T04:19:01.304Z,0.00
2023-05-01T04:20:01.466Z,0.00
2023-05-01T04:21:01.389Z,0.00
2023-05-01T04:22:01.372Z,0.00
2023-05-01T04:23:01.373Z,0.00
2023-05-01T04:24:01.342Z,0.00
2023-05-01T04:25:01.405Z,0.00
2023-05-01T04:26:01.049Z,0.00
2023-05-01T04:27:01.527Z,0.00
2023-05-01T04:28:01.400Z,0.00
2023-05-01T04:29:01.408Z,0.00
2023-05-01T04:30:01.274Z,0.00
2023-05-01T04:31:01.147Z,0.00
2023-05-01T04:32:01.187Z,0.00
2023-05-01T04:33:01.051Z,0.00
2023-05-01T04:34:01.393Z,0.00
2023-05-01T04:35:01.621Z,0.00
2023-05-01T04:36:01.075Z,0.00
2023-05-01T04:37:01.054Z,0.47
2023-05-01T04:38:01.061Z,0.00
2023-05-01T04:39:01.385Z,0.00
2023-05-01T04:40:01.416Z,0.00
2023-05-01T04:41:01.300Z,0.00
2023-05-01T04:42:01.505Z,0.00
2023-05-01T04:43:01.130Z,0.00
2023-05-01T04:44:01.417Z,0.00
2023-05-01T04:45:01.091Z,0.00
2023-05-01T04:46:03.080Z,0.00
2023-05-01T04:47:01.692Z,0.00
2023-05-01T04:48:01.360Z,0.00
2023-05-01T04:49:01.038Z,0.00
2023-05-01T04:50:01.112Z,0.00
2023-05-01T04:51:01.042Z,0.00
2023-05-01T04:52:01.680Z,0.00
2023-05-01T04:53:01.050Z,0.00
2023-05-01T04:54:01.077Z,0.00
2023-05-01T04:55:01.190Z,0.00
2023-05-01T04:56:01.112Z,0.00
2023-05-01T04:57:01.314Z,0.00
2023-05-01T04:58:01.513Z,0.00
2023-05-01T04:59:01.037Z,0.00
2023-05-01T05:00:01.527Z,0.00
2023-05-01T05:01:01.194Z,0.00
2023-05-01T05:02:01.202Z,0.00
2023-05-01T05:03:01.351Z,0.00
2023-05-01T05:04:01.289Z,0.00
2023-05-01T05:05:01.107Z,0.00
2023-05-01T05:06:01.432Z,0.00
2023-05-01T05:07:01.109Z,0.00
2023-05-01T05:08:01.420Z,0.00
2023-05-01T05:09:01.116Z,0.00
2023-05-01T05:10:01.096Z,0.00
2023-05-01T05:11:01.070Z,0.00
2023-05-01T05:12:01.075Z,0.00
2023-05-01T05:13:01.338Z,0.00
2023-05-01T05:14:01.528Z,0.00
2023-05-01T05:15:01.447Z,0.00
2023-05-01T05:16:01.087Z,0.00
2023-05-01T05:17:01.371Z,0.00
2023-05-01T05:18:01.435Z,0.00
2023-05-01T05:19:01.401Z,0.00
2023-05-01T05:20:01.004Z,0.00
2023-05-01T05:21:03.258Z,0.00
2023-05-01T05:22:01.742Z,0.00
2023-05-01T05:23:01.063Z,0.00
2023-05-01T05:24:01.087Z,0.47
2023-05-01T05:25:01.132Z,0.00
2023-05-01T05:26:02.102Z,0.33
2023-05-01T05:27:01.078Z,0.00
2023-05-01T05:28:01.377Z,0.00
2023-05-01T05:29:01.147Z,0.00
2023-05-01T05:30:01.755Z,0.33
2023-05-01T05:31:01.441Z,0.27
2023-05-01T05:32:01.235Z,0.00
2023-05-01T05:33:01.133Z,0.00
2023-05-01T05:34:01.012Z,0.13
2023-05-01T05:35:01.362Z,0.87
2023-05-01T05:36:01.279Z,1.07
2023-05-01T05:37:01.076Z,1.77
2023-05-01T05:38:01.439Z,0.87
2023-05-01T05:39:01.084Z,0.63
2023-05-01T05:40:01.352Z,2.00
2023-05-01T05:41:01.129Z,1.80
2023-05-01T05:42:01.092Z,2.57
2023-05-01T05:43:01.423Z,1.27
2023-05-01T05:44:01.064Z,1.67
2023-05-01T05:45:01.410Z,1.43
2023-05-01T05:46:01.208Z,1.00
2023-05-01T05:47:01.682Z,1.87
2023-05-01T05:48:01.580Z,2.63
2023-05-01T05:49:01.039Z,1.90
2023-05-01T05:50:01.430Z,2.30
2023-05-01T05:51:01.585Z,2.33
2023-05-01T05:52:01.365Z,2.27
2023-05-01T05:53:01.427Z,2.50
2023-05-01T05:54:01.031Z,2.30
2023-05-01T05:55:01.049Z,2.03
2023-05-01T05:56:01.367Z,2.87
2023-05-01T05:57:01.008Z,3.77
2023-05-01T05:58:01.654Z,3.40
2023-05-01T05:59:01.083Z,5.00
2023-05-01T06:00:01.424Z,2.47
2023-05-01T06:01:01.444Z,1.67
2023-05-01T06:02:01.079Z,1.97
2023-05-01T06:03:01.497Z,3.07
2023-05-01T06:04:01.063Z,4.07
2023-05-01T06:05:01.468Z,3.47
2023-05-01T06:06:01.583Z,2.83
2023-05-01T06:07:01.562Z,2.67
2023-05-01T06:08:01.048Z,4.37
2023-05-01T06:09:01.278Z,2.17
2023-05-01T06:10:01.379Z,3.57
2023-05-01T06:11:01.396Z,3.30
2023-05-01T06:12:01.454Z,3.43
2023-05-01T06:13:10.231Z,3.17
2023-05-01T06:14:01.379Z,3.43
2023-05-01T06:15:01.053Z,6.27
2023-05-01T06:16:01.507Z,3.80
2023-05-01T06:17:01.397Z,5.73
2023-05-01T06:18:01.526Z,5.30
2023-05-01T06:19:01.197Z,6.00
2023-05-01T06:20:01.311Z,6.97
2023-05-01T06:21:01.078Z,5.40
2023-05-01T06:22:01.425Z,5.93
2023-05-01T06:23:01.060Z,5.67
2023-05-01T06:24:01.454Z,5.47
2023-05-01T06:25:01.027Z,7.20
2023-05-01T06:26:01.092Z,7.67
2023-05-01T06:27:01.616Z,4.90
2023-05-01T06:28:01.114Z,5.73
2023-05-01T06:29:01.092Z,7.30
2023-05-01T06:30:01.058Z,7.57
2023-05-01T06:31:01.662Z,8.73
2023-05-01T06:32:01.127Z,5.50
2023-05-01T06:33:01.109Z,5.20
2023-05-01T06:34:01.071Z,5.70
2023-05-01T06:35:01.026Z,6.20
2023-05-01T06:36:01.535Z,6.67
2023-05-01T06:37:01.041Z,6.33
2023-05-01T06:38:01.026Z,8.00
2023-05-01T06:39:01.443Z,5.97
2023-05-01T06:40:01.130Z,10.10
2023-05-01T06:41:01.446Z,5.57
2023-05-01T06:42:01.209Z,10.50
2023-05-01T06:43:01.386Z,9.30
2023-05-01T06:44:01.115Z,7.60
2023-05-01T06:45:01.096Z,6.93
2023-05-01T06:46:01.028Z,10.03
2023-05-01T06:47:01.076Z,11.23
2023-05-01T06:48:01.105Z,7.57
2023-05-01T06:49:01.357Z,10.47
2023-05-01T06:50:02.841Z,7.80
2023-05-01T06:51:01.085Z,8.80
2023-05-01T06:52:01.423Z,7.40
2023-05-01T06:53:01.320Z,7.63
2023-05-01T06:54:01.355Z,7.93
2023-05-01T06:55:01.446Z,8.17
2023-05-01T06:56:01.043Z,4.37
2023-05-01T06:57:01.082Z,11.67
2023-05-01T06:58:02.901Z,7.03
2023-05-01T06:59:01.072Z,8.70
2023-05-01T07:00:01.010Z,6.77
2023-05-01T07:01:01.199Z,8.93
2023-05-01T07:02:01.378Z,8.57
2023-05-01T07:03:01.481Z,6.33
2023-05-01T07:04:01.318Z,8.13
2023-05-01T07:05:01.432Z,9.47
2023-05-01T07:06:01.472Z,6.23
2023-05-01T07:07:01.070Z,6.57
2023-05-01T07:08:01.791Z,8.47
2023-05-01T07:09:01.088Z,9.47
2023-05-01T07:10:01.123Z,9.27
2023-05-01T07:11:01.535Z,6.60
2023-05-01T07:12:01.455Z,10.73
2023-05-01T07:13:01.337Z,7.70
2023-05-01T07:14:01.511Z,6.93
2023-05-01T07:15:01.266Z,10.13
2023-05-01T07:16:01.497Z,8.13
2023-05-01T07:17:01.541Z,8.70
2023-05-01T07:18:01.133Z,10.80
2023-05-01T07:19:01.407Z,6.20
2023-05-01T07:20:01.003Z,7.03
2023-05-01T07:21:01.020Z,7.47
2023-05-01T07:22:01.414Z,8.03
2023-05-01T07:23:01.456Z,9.50
2023-05-01T07:24:01.036Z,6.07
2023-05-01T07:25:01.096Z,9.10
2023-05-01T07:26:01.312Z,7.33
2023-05-01T07:27:01.082Z,7.73
2023-05-01T07:28:01.378Z,9.80
2023-05-01T07:29:01.382Z,8.40
2023-05-01T07:30:02.724Z,10.60
2023-05-01T07:31:01.095Z,6.30
2023-05-01T07:32:01.115Z,8.33
2023-05-01T07:33:01.226Z,9.73
2023-05-01T07:34:01.034Z,10.07
2023-05-01T07:35:01.013Z,13.33
2023-05-01T07:36:01.454Z,9.03
2023-05-01T07:37:01.647Z,9.90
2023-05-01T07:38:01.064Z,8.53
2023-05-01T07:39:01.363Z,9.90
2023-05-01T07:40:01.057Z,9.37
2023-05-01T07:41:01.384Z,9.67
2023-05-01T07:42:01.063Z,9.47
2023-05-01T07:43:01.322Z,6.77
2023-05-01T07:44:01.461Z,7.67
2023-05-01T07:45:01.134Z,9.13
2023-05-01T07:46:01.136Z,9.33
2023-05-01T07:47:02.999Z,11.30
2023-05-01T07:48:01.292Z,12.60
2023-05-01T07:49:01.433Z,8.27
2023-05-01T07:50:01.325Z,11.93
2023-05-01T07:51:02.291Z,10.93
2023-05-01T07:52:01.067Z,11.90
2023-05-01T07:53:01.064Z,8.43
2023-05-01T07:54:01.430Z,9.03
2023-05-01T07:55:01.059Z,8.60
2023-05-01T07:56:05.463Z,7.20
2023-05-01T07:57:01.276Z,9.57
2023-05-01T07:58:01.020Z,5.70
2023-05-01T07:59:01.373Z,9.30
2023-05-01T08:00:01.588Z,7.60
2023-05-01T08:01:01.414Z,9.93
2023-05-01T08:02:01.108Z,10.17
2023-05-01T08:03:01.909Z,9.20
2023-05-01T08:04:01.065Z,7.37
2023-05-01T08:05:01.452Z,9.53
2023-05-01T08:06:01.054Z,7.10
2023-05-01T08:07:01.167Z,8.37
2023-05-01T08:08:01.034Z,7.53
2023-05-01T08:09:01.033Z,9.67
2023-05-01T08:10:02.078Z,7.47
2023-05-01T08:11:01.376Z,10.50
2023-05-01T08:12:01.378Z,8.13
2023-05-01T08:13:01.047Z,10.90
2023-05-01T08:14:01.424Z,7.90
2023-05-01T08:15:01.452Z,8.87
2023-05-01T08:16:01.777Z,11.53
2023-05-01T08:17:01.001Z,13.13
2023-05-01T08:18:01.087Z,11.57
2023-05-01T08:19:01.476Z,10.50
2023-05-01T08:20:01.599Z,9.80
2023-05-01T08:21:01.233Z,11.23
2023-05-01T08:22:01.349Z,11.03
2023-05-01T08:23:01.425Z,7.70
2023-05-01T08:24:01.403Z,8.53
2023-05-01T08:25:01.097Z,8.20
2023-05-01T08:26:01.442Z,11.27
2023-05-01T08:27:01.047Z,9.43
2023-05-01T08:28:01.405Z,9.07
2023-05-01T08:29:01.362Z,9.27
2023-05-01T08:30:01.457Z,9.07
2023-05-01T08:31:01.083Z,7.03
2023-05-01T08:32:01.493Z,7.20
2023-05-01T08:33:01.172Z,7.77
2023-05-01T08:34:01.014Z,9.03
2023-05-01T08:35:01.420Z,12.33
2023-05-01T08:36:01.098Z,11.17
2023-05-01T08:37:01.638Z,7.20
2023-05-01T08:38:01.535Z,8.90
2023-05-01T08:39:01.414Z,11.17
2023-05-01T08:40:01.071Z,9.27
2023-05-01T08:41:01.446Z,7.07
2023-05-01T08:42:02.360Z,7.40
2023-05-01T08:43:01.781Z,7.93
2023-05-01T08:44:02.485Z,10.30
2023-05-01T08:45:02.536Z,8.60
2023-05-01T08:46:03.030Z,7.80
2023-05-01T08:47:09.951Z,9.27
2023-05-01T08:48:04.913Z,9.23
2023-05-01T08:49:05.245Z,9.60
2023-05-01T08:50:03.153Z,10.27
2023-05-01T08:51:02.694Z,9.83
2023-05-01T08:52:02.240Z,8.53
2023-05-01T08:53:02.529Z,7.53
2023-05-01T08:54:04.830Z,10.03
2023-05-01T08:55:02.420Z,8.33
2023-05-01T08:56:05.854Z,9.20
2023-05-01T08:57:02.773Z,9.93
2023-05-01T08:58:02.906Z,8.00
2023-05-01T08:59:03.401Z,9.43
2023-05-01T09:00:02.694Z,8.10
2023-05-01T09:01:01.846Z,11.13
2023-05-01T09:02:02.632Z,6.93
2023-05-01T09:03:03.413Z,9.37
2023-05-01T09:04:02.773Z,7.93
2023-05-01T09:05:02.888Z,6.60
2023-05-01T09:06:02.724Z,6.23
2023-05-01T09:07:01.572Z,6.90
2023-05-01T09:08:01.032Z,8.07
2023-05-01T09:09:01.650Z,8.07
2023-05-01T09:10:01.413Z,9.43
2023-05-01T09:11:03.433Z,7.43
2023-05-01T09:12:11.727Z,8.00
2023-05-01T09:13:02.985Z,10.17
2023-05-01T09:14:02.442Z,7.93
2023-05-01T09:15:02.870Z,7.53
2023-05-01T09:16:03.660Z,9.53
2023-05-01T09:17:01.076Z,8.53
2023-05-01T09:18:03.591Z,7.53
2023-05-01T09:19:01.555Z,9.03
2023-05-01T09:20:02.519Z,6.27
2023-05-01T09:21:01.623Z,9.63
2023-05-01T09:22:01.149Z,10.40
2023-05-01T09:23:01.086Z,7.47
2023-05-01T09:24:01.054Z,8.07
2023-05-01T09:25:01.565Z,5.53
2023-05-01T09:26:04.089Z,7.07
2023-05-01T09:27:01.279Z,4.77
2023-05-01T09:28:03.940Z,5.77
2023-05-01T09:29:01.084Z,6.57
2023-05-01T09:30:01.150Z,6.93
2023-05-01T09:31:20.494Z,6.03
2023-05-01T09:32:12.700Z,5.00
2023-05-01T09:33:09.871Z,6.33
2023-05-01T09:34:02.479Z,6.30
2023-05-01T09:35:11.906Z,5.47
2023-05-01T09:36:01.124Z,8.57
2023-05-01T09:37:01.580Z,5.87
2023-05-01T09:38:01.320Z,6.23
2023-05-01T09:39:01.984Z,6.60
2023-05-01T09:40:04.166Z,6.47
2023-05-01T09:41:04.092Z,6.17
2023-05-01T09:42:01.066Z,3.97
2023-05-01T09:43:01.352Z,5.73
2023-05-01T09:44:01.144Z,4.20
2023-05-01T09:45:04.172Z,5.00
2023-05-01T09:46:03.311Z,5.07
2023-05-01T09:47:01.566Z,7.77
2023-05-01T09:48:07.696Z,6.37
2023-05-01T09:49:01.890Z,7.37
2023-05-01T09:50:01.092Z,6.50
2023-05-01T09:51:11.043Z,8.13
2023-05-01T09:52:10.791Z,4.73
2023-05-01T09:53:02.154Z,5.67
2023-05-01T09:54:03.705Z,7.73
2023-05-01T09:55:11.661Z,4.07
2023-05-01T09:56:01.809Z,6.90
2023-05-01T09:57:01.011Z,7.40
2023-05-01T09:58:01.528Z,5.93
2023-05-01T09:59:15.130Z,6.63
2023-05-01T10:00:01.733Z,6.83
2023-05-01T10:01:01.152Z,6.90
2023-05-01T10:02:01.151Z,7.33
2023-05-01T10:03:12.504Z,11.37
2023-05-01T10:04:01.236Z,6.40
2023-05-01T10:05:01.866Z,4.20
2023-05-01T10:06:01.635Z,6.07
2023-05-01T10:07:11.252Z,5.20
2023-05-01T10:08:02.010Z,7.83
2023-05-01T10:09:02.673Z,6.63
2023-05-01T10:10:18.944Z,8.07
2023-05-01T10:11:02.860Z,8.50
2023-05-01T10:12:01.074Z,5.73
2023-05-01T10:13:12.967Z,8.50
2023-05-01T10:14:09.786Z,3.97
2023-05-01T10:15:07.835Z,4.23
2023-05-01T10:16:01.318Z,4.20
2023-05-01T10:17:16.046Z,4.37
2023-05-01T10:18:01.829Z,4.37
2023-05-01T10:19:03.675Z,4.53
2023-05-01T10:20:01.417Z,3.97
2023-05-01T10:21:03.477Z,8.10
2023-05-01T10:22:01.352Z,5.90
2023-05-01T10:23:02.156Z,6.47
2023-05-01T10:24:01.906Z,4.57
2023-05-01T10:25:01.836Z,4.13
2023-05-01T10:26:04.547Z,3.33
2023-05-01T10:27:02.006Z,2.93
2023-05-01T10:28:03.343Z,2.63
2023-05-01T10:29:02.588Z,4.10
2023-05-01T10:30:02.912Z,3.47
2023-05-01T10:31:02.436Z,4.47
2023-05-01T10:32:03.222Z,3.90
2023-05-01T10:33:02.293Z,2.37
2023-05-01T10:34:01.905Z,3.53
2023-05-01T10:35:06.288Z,2.10
2023-05-01T10:36:03.028Z,3.50
2023-05-01T10:37:08.746Z,3.60
2023-05-01T10:38:03.739Z,2.33
2023-05-01T10:39:01.948Z,0.90
2023-05-01T10:40:20.467Z,2.37
2023-05-01T10:41:01.331Z,3.33
2023-05-01T10:42:02.986Z,2.67
2023-05-01T10:43:14.934Z,1.73
2023-05-01T10:44:20.493Z,5.03
2023-05-01T10:45:20.471Z,2.40
2023-05-01T10:46:20.487Z,2.27
2023-05-01T10:47:20.535Z,4.33
2023-05-01T10:48:01.353Z,3.33
2023-05-01T10:49:01.084Z,3.83
2023-05-01T10:50:03.914Z,2.77
2023-05-01T10:51:12.483Z,2.70
2023-05-01T10:52:01.093Z,4.47
2023-05-01T10:53:18.312Z,2.93
2023-05-01T10:54:20.488Z,1.87
2023-05-01T10:55:20.476Z,1.80
2023-05-01T10:56:01.035Z,1.83
2023-05-01T10:57:02.496Z,1.83
2023-05-01T10:58:01.433Z,1.47
2023-05-01T10:59:02.062Z,2.37
2023-05-01T11:00:10.754Z,3.53
2023-05-01T11:01:20.507Z,2.33
2023-05-01T11:02:20.545Z,2.37
2023-05-01T11:03:20.467Z,1.90
2023-05-01T11:04:03.601Z,1.80
2023-05-01T11:05:01.265Z,1.57
2023-05-01T11:06:05.338Z,2.33
2023-05-01T11:07:14.514Z,2.00
2023-05-01T11:08:20.488Z,1.07
2023-05-01T11:09:11.214Z,2.20
2023-05-01T11:10:01.369Z,2.67
2023-05-01T11:11:20.471Z,0.67
2023-05-01T11:12:01.078Z,2.13
2023-05-01T11:13:01.097Z,1.87
2023-05-01T11:14:02.256Z,2.27
2023-05-01T11:15:03.800Z,1.33
2023-05-01T11:16:20.513Z,1.33
2023-05-01T11:17:01.267Z,1.13
2023-05-01T11:18:02.276Z,2.17
2023-05-01T11:19:01.382Z,2.13
2023-05-01T11:20:01.078Z,2.77
2023-05-01T11:21:01.317Z,0.40
2023-05-01T11:22:01.731Z,0.77
2023-05-01T11:23:01.384Z,1.53
2023-05-01T11:24:02.034Z,2.73
2023-05-01T11:25:02.062Z,1.60
2023-05-01T11:26:02.775Z,1.20
2023-05-01T11:27:02.243Z,1.27
2023-05-01T11:28:03.291Z,1.43
2023-05-01T11:29:01.393Z,2.10
2023-05-01T11:30:01.055Z,1.97
2023-05-01T11:31:01.166Z,2.53
2023-05-01T11:32:01.141Z,3.03
2023-05-01T11:33:01.653Z,2.77
2023-05-01T11:34:02.385Z,1.70
2023-05-01T11:35:01.412Z,3.33
2023-05-01T11:36:01.846Z,2.63
2023-05-01T11:37:01.316Z,1.60
2023-05-01T11:38:01.411Z,3.37
2023-05-01T11:39:01.321Z,3.13
2023-05-01T11:40:01.382Z,2.80
2023-05-01T11:41:02.503Z,2.30
2023-05-01T11:42:09.203Z,1.93
2023-05-01T11:43:03.018Z,1.27
2023-05-01T11:44:01.064Z,2.60
2023-05-01T11:45:09.132Z,1.80
2023-05-01T11:46:01.092Z,1.63
2023-05-01T11:47:01.094Z,2.13
2023-05-01T11:48:03.619Z,1.17
2023-05-01T11:49:01.803Z,1.77
2023-05-01T11:50:01.192Z,1.70
2023-05-01T11:51:12.305Z,1.03
2023-05-01T11:52:01.026Z,1.70
2023-05-01T11:53:02.500Z,0.57
2023-05-01T11:54:04.175Z,1.13
2023-05-01T11:55:01.890Z,0.97
2023-05-01T11:56:01.068Z,0.37
2023-05-01T11:57:01.507Z,0.73
2023-05-01T11:58:01.919Z,1.30
2023-05-01T11:59:10.199Z,1.00
2023-05-01T12:00:01.156Z,0.50
2023-05-01T12:01:01.714Z,0.43
2023-05-01T12:02:01.114Z,1.63
2023-05-01T12:03:03.165Z,0.63
2023-05-01T12:04:01.250Z,0.00
2023-05-01T12:05:14.708Z,0.00
2023-05-01T12:06:01.103Z,0.20
2023-05-01T12:07:01.373Z,0.00
2023-05-01T12:08:10.156Z,0.47
2023-05-01T12:09:01.483Z,0.43
2023-05-01T12:10:01.724Z,0.23
2023-05-01T12:11:01.186Z,0.00
2023-05-01T12:12:01.647Z,0.00
2023-05-01T12:13:02.127Z,0.00
2023-05-01T12:14:01.879Z,0.07
2023-05-01T12:15:01.624Z,0.00
2023-05-01T12:16:01.749Z,0.00
2023-05-01T12:17:01.269Z,1.00
2023-05-01T12:18:01.811Z,0.00
2023-05-01T12:19:01.641Z,0.00
2023-05-01T12:20:01.691Z,0.00
2023-05-01T12:21:01.416Z,0.00
2023-05-01T12:22:05.618Z,0.00
2023-05-01T12:23:02.045Z,0.00
2023-05-01T12:24:07.622Z,0.00
2023-05-01T12:25:01.457Z,0.00
2023-05-01T12:26:01.432Z,0.00
2023-05-01T12:27:01.560Z,0.00
2023-05-01T12:28:06.605Z,0.00
2023-05-01T12:29:03.564Z,0.00
2023-05-01T12:30:01.044Z,0.17
2023-05-01T12:31:04.885Z,0.00
2023-05-01T12:32:01.982Z,0.00
2023-05-01T12:33:07.398Z,0.00
2023-05-01T12:34:02.578Z,0.00
2023-05-01T12:35:13.291Z,0.00
2023-05-01T12:36:09.423Z,0.00
2023-05-01T12:37:02.268Z,0.00
2023-05-01T12:38:10.109Z,0.00
2023-05-01T12:39:03.994Z,0.00
2023-05-01T12:40:01.124Z,0.00
2023-05-01T12:41:01.420Z,0.00
2023-05-01T12:42:01.163Z,0.00
2023-05-01T12:43:01.239Z,0.00
2023-05-01T12:44:01.615Z,0.00
2023-05-01T12:45:01.304Z,0.00
2023-05-01T12:46:03.130Z,0.00
2023-05-01T12:47:02.776Z,0.00
2023-05-01T12:48:01.571Z,0.00
2023-05-01T12:49:01.087Z,0.00
2023-05-01T12:50:01.940Z,0.00
2023-05-01T12:51:01.198Z,0.00
2023-05-01T12:52:02.271Z,0.00
2023-05-01T12:53:02.079Z,0.00
2023-05-01T12:54:01.127Z,0.00
2023-05-01T12:55:03.116Z,0.00
2023-05-01T12:56:01.260Z,0.00
2023-05-01T12:57:05.700Z,0.00
2023-05-01T12:58:01.146Z,0.00
2023-05-01T12:59:01.397Z,0.00
2023-05-01T13:00:03.522Z,0.00
2023-05-01T13:01:01.272Z,0.00
2023-05-01T13:02:02.996Z,0.00
2023-05-01T13:03:04.054Z,0.00
2023-05-01T13:04:01.111Z,0.00
2023-05-01T13:05:05.910Z,0.00
2023-05-01T13:06:03.066Z,0.00
2023-05-01T13:07:01.651Z,0.00
2023-05-01T13:08:03.019Z,0.00
2023-05-01T13:09:09.180Z,0.00
2023-05-01T13:10:02.639Z,0.00
2023-05-01T13:11:09.154Z,0.00
2023-05-01T13:12:02.646Z,0.00
2023-05-01T13:13:01.255Z,0.00
2023-05-01T13:14:07.724Z,0.00
2023-05-01T13:15:01.492Z,0.00
2023-05-01T13:16:06.247Z,0.00